Time;durP1;ratioP1;P1;durP2;ratioP2;P2;SDS_P1;SDS_P2;PMS_P1;PMS_P2;Temp;Humidity;BMP_temperature;BMP_pressure;BME280_temperature;BME280_humidity;BME280_pressure;Samples;Min_cycle;Max_cycle;Signal;HPM_P1;HPM_P2
2022/05/22 00:02:09;;;;;;;5.35;0.90;;;;;;;;;;5042836;28;20486;-52
2022/05/22 00:04:35;;;;;;;4.78;0.90;;;;;;;;;;5041381;28;20021;-53
2022/05/22 00:07:01;;;;;;;5.03;1.08;;;;;;;;;;5030905;28;20183;-51
2022/05/22 00:09:30;;;;;;;2.85;1.08;;;;;;;;;;5044642;28;20108;-52
2022/05/22 00:11:57;;;;;;;2.60;0.80;;;;;;;;;;5036089;28;20047;-51
2022/05/22 00:14:25;;;;;;;1.70;0.82;;;;;;;;;;5035025;28;20497;-51
2022/05/22 00:16:51;;;;;;;1.83;1.00;;;;;;;;;;5039495;28;20053;-51
2022/05/22 00:19:19;;;;;;;4.53;1.17;;;;;;;;;;5038456;28;20476;-51
2022/05/22 00:21:45;;;;;;;3.95;1.17;;;;;;;;;;5054353;28;20047;-50
2022/05/22 00:24:12;;;;;;;7.78;1.00;;;;;;;;;;5048408;28;20051;-51
2022/05/22 00:26:39;;;;;;;4.60;1.10;;;;;;;;;;5054885;28;20033;-50
2022/05/22 00:29:05;;;;;;;4.07;0.80;;;;;;;;;;5037838;28;20030;-51
2022/05/22 00:31:31;;;;;;;2.65;0.65;;;;;;;;;;5043398;28;20615;-51
2022/05/22 00:33:57;;;;;;;4.95;0.90;;;;;;;;;;5041444;28;20029;-53
2022/05/22 00:36:23;;;;;;;1.60;0.90;;;;;;;;;;5054567;28;20095;-52
2022/05/22 00:38:49;;;;;;;2.42;0.80;;;;;;;;;;5040059;28;20025;-53
2022/05/22 00:41:15;;;;;;;3.65;1.00;;;;;;;;;;5042841;28;20128;-53
2022/05/22 00:43:46;;;;;;;3.78;0.98;;;;;;;;;;5039815;28;20041;-52
2022/05/22 00:46:13;;;;;;;4.75;1.50;;;;;;;;;;5041269;28;20037;-54
2022/05/22 00:48:40;;;;;;;3.95;1.00;;;;;;;;;;5040227;28;20048;-51
2022/05/22 00:51:09;;;;;;;4.00;1.23;;;;;;;;;;5034767;28;20061;-51
2022/05/22 00:53:39;;;;;;;4.40;1.20;;;;;;;;;;5035286;28;20033;-51
2022/05/22 00:56:07;;;;;;;3.45;1.50;;;;;;;;;;5054406;28;20021;-51
2022/05/22 00:58:33;;;;;;;5.60;1.33;;;;;;;;;;5042055;28;20025;-50
2022/05/22 01:00:59;;;;;;;5.22;1.15;;;;;;;;;;5050562;28;20047;-50
2022/05/22 01:03:26;;;;;;;6.90;1.58;;;;;;;;;;5045826;28;20124;-51
2022/05/22 01:05:53;;;;;;;4.28;0.98;;;;;;;;;;5046801;28;20120;-51
2022/05/22 01:08:19;;;;;;;2.47;1.38;;;;;;;;;;5045088;28;20111;-52
2022/05/22 01:10:47;;;;;;;2.05;0.70;;;;;;;;;;5046770;28;20041;-50
2022/05/22 01:13:14;;;;;;;5.60;1.10;;;;;;;;;;5045166;28;20032;-51
2022/05/22 01:15:40;;;;;;;3.25;0.95;;;;;;;;;;5042209;28;20030;-50
2022/05/22 01:18:06;;;;;;;2.42;1.08;;;;;;;;;;5048347;28;20072;-51
2022/05/22 01:20:32;;;;;;;3.00;1.17;;;;;;;;;;5040067;28;20504;-53
2022/05/22 01:22:58;;;;;;;3.13;1.17;;;;;;;;;;5041777;28;20032;-53
2022/05/22 01:25:24;;;;;;;5.53;1.67;;;;;;;;;;5049931;28;20053;-52
2022/05/22 01:27:51;;;;;;;3.22;0.80;;;;;;;;;;5051040;28;20033;-52
2022/05/22 01:30:18;;;;;;;2.83;1.10;;;;;;;;;;5052345;28;20582;-51
2022/05/22 01:32:46;;;;;;;4.55;1.08;;;;;;;;;;5049633;28;20025;-50
2022/05/22 01:35:15;;;;;;;2.80;1.20;;;;;;;;;;5043075;28;20033;-50
2022/05/22 01:37:41;;;;;;;5.32;1.42;;;;;;;;;;5042447;28;20096;-50
2022/05/22 01:40:09;;;;;;;2.08;1.00;;;;;;;;;;5029806;28;20040;-50
2022/05/22 01:42:35;;;;;;;4.82;1.08;;;;;;;;;;5033835;28;20064;-51
2022/05/22 01:45:01;;;;;;;2.45;1.08;;;;;;;;;;5032672;28;20489;-50
2022/05/22 01:47:27;;;;;;;4.68;1.40;;;;;;;;;;5045940;28;20040;-50
2022/05/22 01:49:54;;;;;;;5.18;1.45;;;;;;;;;;5044955;28;20030;-51
2022/05/22 01:52:20;;;;;;;2.20;0.93;;;;;;;;;;5037118;28;20022;-51
2022/05/22 01:54:46;;;;;;;4.43;0.75;;;;;;;;;;5031926;28;20025;-51
2022/05/22 01:57:12;;;;;;;5.03;1.08;;;;;;;;;;5047312;28;20028;-51
2022/05/22 01:59:38;;;;;;;4.82;1.33;;;;;;;;;;5040231;28;20033;-51
2022/05/22 02:02:04;;;;;;;6.00;1.30;;;;;;;;;;5047961;28;20018;-50
2022/05/22 02:04:30;;;;;;;3.75;0.98;;;;;;;;;;5051334;28;20029;-52
2022/05/22 02:09:41;;;;;;;4.88;1.40;;;;;;;;;;5037611;28;20040;-51
2022/05/22 02:12:07;;;;;;;3.88;1.20;;;;;;;;;;5048449;28;20013;-51
2022/05/22 02:14:33;;;;;;;7.88;1.40;;;;;;;;;;5044741;28;20021;-52
2022/05/22 02:16:59;;;;;;;2.83;1.10;;;;;;;;;;5042860;28;20101;-53
2022/05/22 02:19:25;;;;;;;2.30;0.93;;;;;;;;;;5043494;28;20059;-53
2022/05/22 02:21:51;;;;;;;4.22;1.20;;;;;;;;;;5029657;28;20476;-52
2022/05/22 02:24:17;;;;;;;6.75;1.15;;;;;;;;;;5043903;28;20393;-53
2022/05/22 02:26:43;;;;;;;4.03;1.20;;;;;;;;;;5047531;28;20033;-52
2022/05/22 02:29:10;;;;;;;3.85;1.63;;;;;;;;;;5052217;28;20375;-51
2022/05/22 02:31:36;;;;;;;3.38;1.20;;;;;;;;;;5051947;28;20033;-51
2022/05/22 02:34:02;;;;;;;5.93;1.08;;;;;;;;;;5043780;28;20048;-52
2022/05/22 02:36:28;;;;;;;2.47;0.90;;;;;;;;;;5037513;28;20061;-51
2022/05/22 02:38:54;;;;;;;4.32;0.90;;;;;;;;;;5047154;28;20420;-50
2022/05/22 02:41:20;;;;;;;3.38;0.90;;;;;;;;;;5045616;28;20029;-51
2022/05/22 02:43:46;;;;;;;3.28;1.10;;;;;;;;;;5034851;28;20029;-52
2022/05/22 02:46:13;;;;;;;3.45;1.08;;;;;;;;;;5051846;28;20056;-50
2022/05/22 02:48:39;;;;;;;6.10;1.10;;;;;;;;;;5044873;28;20121;-50
2022/05/22 02:51:05;;;;;;;5.25;1.85;;;;;;;;;;5043125;28;20108;-51
2022/05/22 02:53:31;;;;;;;2.47;1.55;;;;;;;;;;5046534;28;20025;-54
2022/05/22 02:56:06;;;;;;;4.45;1.13;;;;;;;;;;5046494;28;20109;-50
2022/05/22 02:58:31;;;;;;;6.70;1.13;;;;;;;;;;5047308;28;20056;-52
2022/05/22 03:00:57;;;;;;;4.10;1.40;;;;;;;;;;5028125;28;20404;-50
2022/05/22 03:03:23;;;;;;;3.85;1.17;;;;;;;;;;5042075;28;20025;-53
2022/05/22 03:08:34;;;;;;;2.78;1.15;;;;;;;;;;5041761;28;20516;-51
2022/05/22 03:11:06;;;;;;;3.38;1.20;;;;;;;;;;5043856;28;20037;-53
2022/05/22 03:13:33;;;;;;;6.13;1.30;;;;;;;;;;5035861;28;20380;-52
2022/05/22 03:15:59;;;;;;;4.22;0.93;;;;;;;;;;5034619;28;20341;-54
2022/05/22 03:18:25;;;;;;;2.85;1.13;;;;;;;;;;5041798;28;20446;-50
2022/05/22 03:20:51;;;;;;;4.72;1.23;;;;;;;;;;5051069;28;20059;-49
2022/05/22 03:23:17;;;;;;;3.42;1.73;;;;;;;;;;5042754;28;20146;-51
2022/05/22 03:25:44;;;;;;;6.07;1.45;;;;;;;;;;5041020;28;20048;-50
2022/05/22 03:28:10;;;;;;;4.63;1.13;;;;;;;;;;5040324;28;20103;-50
2022/05/22 03:30:36;;;;;;;4.35;1.15;;;;;;;;;;5032884;28;20474;-54
2022/05/22 03:33:02;;;;;;;3.60;1.08;;;;;;;;;;5043295;28;20033;-54
2022/05/22 03:35:29;;;;;;;4.68;1.20;;;;;;;;;;5051272;28;20380;-51
2022/05/22 03:37:55;;;;;;;5.28;1.70;;;;;;;;;;5046856;28;20037;-51
2022/05/22 03:40:21;;;;;;;3.50;1.10;;;;;;;;;;5039811;28;20480;-50
2022/05/22 03:42:47;;;;;;;5.18;1.17;;;;;;;;;;5045921;28;20086;-51
2022/05/22 03:45:13;;;;;;;4.70;1.23;;;;;;;;;;5043903;28;20029;-50
2022/05/22 03:47:39;;;;;;;4.18;1.00;;;;;;;;;;5046827;28;20537;-52
2022/05/22 03:50:07;;;;;;;4.20;1.35;;;;;;;;;;5050658;28;20032;-52
2022/05/22 03:52:34;;;;;;;3.00;1.25;;;;;;;;;;5045435;28;20435;-51
2022/05/22 03:55:00;;;;;;;6.70;1.27;;;;;;;;;;5044477;28;20082;-52
2022/05/22 03:57:26;;;;;;;3.20;1.08;;;;;;;;;;5038657;28;20048;-53
2022/05/22 03:59:52;;;;;;;6.50;1.55;;;;;;;;;;5028868;28;20488;-53
2022/05/22 04:02:18;;;;;;;5.70;1.20;;;;;;;;;;5049591;28;20021;-52
2022/05/22 04:04:44;;;;;;;5.80;1.00;;;;;;;;;;5038578;28;20021;-51
2022/05/22 04:07:10;;;;;;;2.63;1.17;;;;;;;;;;5036375;28;20547;-52
2022/05/22 04:09:36;;;;;;;3.85;1.20;;;;;;;;;;5046683;28;20036;-51
2022/05/22 04:12:06;;;;;;;4.85;1.23;;;;;;;;;;5033740;28;20029;-51
2022/05/22 04:14:32;;;;;;;6.45;1.35;;;;;;;;;;5032181;28;20087;-50
2022/05/22 04:16:58;;;;;;;5.30;1.35;;;;;;;;;;5049614;28;20025;-50
2022/05/22 04:19:24;;;;;;;8.63;1.85;;;;;;;;;;5034749;28;20038;-53
2022/05/22 04:21:50;;;;;;;3.95;1.13;;;;;;;;;;5047430;28;20044;-53
2022/05/22 04:27:04;;;;;;;6.25;1.10;;;;;;;;;;5039497;28;20036;-50
2022/05/22 04:29:34;;;;;;;4.10;1.10;;;;;;;;;;5031813;28;20565;-51
2022/05/22 04:32:00;;;;;;;5.25;1.40;;;;;;;;;;5039831;28;20029;-50
2022/05/22 04:34:26;;;;;;;5.28;1.52;;;;;;;;;;5045985;28;20078;-51
2022/05/22 04:36:52;;;;;;;4.38;1.13;;;;;;;;;;5041622;28;20758;-51
2022/05/22 04:39:18;;;;;;;6.28;1.75;;;;;;;;;;5046774;28;20025;-50
2022/05/22 04:41:44;;;;;;;7.25;1.30;;;;;;;;;;5045556;28;20032;-51
2022/05/22 04:44:10;;;;;;;8.63;1.30;;;;;;;;;;5024329;28;20025;-51
2022/05/22 04:46:36;;;;;;;5.15;1.45;;;;;;;;;;5034282;28;20025;-50
2022/05/22 04:49:02;;;;;;;4.10;1.40;;;;;;;;;;5035558;28;20097;-50
2022/05/22 04:51:28;;;;;;;5.28;1.50;;;;;;;;;;5040197;28;20463;-51
2022/05/22 04:53:54;;;;;;;5.90;1.40;;;;;;;;;;5049820;28;20055;-50
2022/05/22 04:56:21;;;;;;;4.63;1.27;;;;;;;;;;5034587;28;20056;-54
2022/05/22 04:58:47;;;;;;;7.63;1.95;;;;;;;;;;5033969;28;20507;-50
2022/05/22 05:01:14;;;;;;;4.93;1.70;;;;;;;;;;5040540;28;20038;-52
2022/05/22 05:03:40;;;;;;;10.43;1.25;;;;;;;;;;5039673;28;20034;-53
2022/05/22 05:06:06;;;;;;;9.88;1.40;;;;;;;;;;5044470;28;20033;-51
2022/05/22 05:08:32;;;;;;;9.20;1.42;;;;;;;;;;5046931;28;20025;-51
2022/05/22 05:10:59;;;;;;;7.68;1.40;;;;;;;;;;5011959;28;20065;-51
2022/05/22 05:13:26;;;;;;;5.65;1.73;;;;;;;;;;5031935;28;20523;-52
2022/05/22 05:15:59;;;;;;;4.55;1.35;;;;;;;;;;5039885;28;20029;-52
2022/05/22 05:18:24;;;;;;;5.95;1.55;;;;;;;;;;5014043;28;20036;-51
2022/05/22 05:20:51;;;;;;;5.35;1.73;;;;;;;;;;5044271;28;20036;-51
2022/05/22 05:23:17;;;;;;;5.03;1.65;;;;;;;;;;5047971;28;20027;-50
2022/05/22 05:25:43;;;;;;;5.05;1.58;;;;;;;;;;5053598;28;20029;-51
2022/05/22 05:28:09;;;;;;;3.38;1.48;;;;;;;;;;5053292;28;20407;-51
2022/05/22 05:30:35;;;;;;;4.65;1.40;;;;;;;;;;5047793;28;20036;-50
2022/05/22 05:33:01;;;;;;;6.90;1.40;;;;;;;;;;5053335;28;20762;-51
2022/05/22 05:35:27;;;;;;;7.97;1.77;;;;;;;;;;5045213;28;20104;-50
2022/05/22 05:37:53;;;;;;;4.07;1.52;;;;;;;;;;5045831;28;20152;-50
2022/05/22 05:40:19;;;;;;;4.57;1.42;;;;;;;;;;5051209;28;20396;-52
2022/05/22 05:42:45;;;;;;;5.35;1.80;;;;;;;;;;5042382;28;20033;-52
2022/05/22 05:45:12;;;;;;;9.65;1.58;;;;;;;;;;5029470;28;20486;-53
2022/05/22 05:47:37;;;;;;;9.80;2.22;;;;;;;;;;5042359;28;20025;-54
2022/05/22 05:50:05;;;;;;;5.10;1.63;;;;;;;;;;5037782;28;20133;-52
2022/05/22 05:52:31;;;;;;;8.52;1.67;;;;;;;;;;5038260;28;20439;-51
2022/05/22 05:54:57;;;;;;;3.80;1.27;;;;;;;;;;5030254;28;20033;-52
2022/05/22 05:57:23;;;;;;;5.82;1.58;;;;;;;;;;5043122;28;20366;-51
2022/05/22 05:59:52;;;;;;;6.63;2.70;;;;;;;;;;5029826;28;20030;-51
2022/05/22 06:02:18;;;;;;;7.28;1.77;;;;;;;;;;5041798;28;20465;-52
2022/05/22 06:04:44;;;;;;;6.22;1.52;;;;;;;;;;5046312;28;20033;-50
2022/05/22 06:07:10;;;;;;;8.55;1.63;;;;;;;;;;5042479;28;20071;-51
2022/05/22 06:09:37;;;;;;;9.88;1.42;;;;;;;;;;5052463;28;20621;-51
2022/05/22 06:12:04;;;;;;;5.03;1.33;;;;;;;;;;5048556;28;20052;-53
2022/05/22 06:14:30;;;;;;;6.60;1.30;;;;;;;;;;5052601;28;20044;-51
2022/05/22 06:16:56;;;;;;;10.50;1.67;;;;;;;;;;5052545;28;20062;-51
2022/05/22 06:22:07;;;;;;;8.45;1.55;;;;;;;;;;5040017;28;20056;-51
2022/05/22 06:24:34;;;;;;;7.43;1.13;;;;;;;;;;5048409;28;20578;-51
2022/05/22 06:27:00;;;;;;;8.73;1.58;;;;;;;;;;5043114;28;20025;-50
2022/05/22 06:29:26;;;;;;;7.40;1.50;;;;;;;;;;5043541;28;20052;-50
2022/05/22 06:31:53;;;;;;;8.93;1.80;;;;;;;;;;5052001;28;20052;-52
2022/05/22 06:34:22;;;;;;;8.50;1.67;;;;;;;;;;5046576;28;20445;-52
2022/05/22 06:36:48;;;;;;;2.90;1.42;;;;;;;;;;5048032;28;20061;-52
2022/05/22 06:41:58;;;;;;;5.50;1.20;;;;;;;;;;5046402;28;20457;-51
2022/05/22 06:44:24;;;;;;;7.47;1.48;;;;;;;;;;5042139;28;20037;-53
2022/05/22 06:46:50;;;;;;;4.45;1.52;;;;;;;;;;5052227;28;20457;-53
2022/05/22 06:49:16;;;;;;;9.13;1.48;;;;;;;;;;5031577;28;20493;-53
2022/05/22 06:51:42;;;;;;;5.90;1.60;;;;;;;;;;5037054;28;20039;-53
2022/05/22 06:54:08;;;;;;;5.47;1.15;;;;;;;;;;5041956;28;20401;-53
2022/05/22 06:56:34;;;;;;;7.53;1.42;;;;;;;;;;5043797;28;20036;-51
2022/05/22 06:59:00;;;;;;;4.75;0.98;;;;;;;;;;5047005;28;20030;-52
2022/05/22 07:01:26;;;;;;;5.32;1.08;;;;;;;;;;5046607;28;20078;-50
2022/05/22 07:03:53;;;;;;;5.93;1.20;;;;;;;;;;5047122;28;20030;-51
2022/05/22 07:06:19;;;;;;;6.40;1.35;;;;;;;;;;5022981;28;20041;-52
2022/05/22 07:08:44;;;;;;;10.75;1.65;;;;;;;;;;5051055;28;20029;-52
2022/05/22 07:13:55;;;;;;;8.88;1.33;;;;;;;;;;5039157;28;20033;-51
2022/05/22 07:16:21;;;;;;;3.20;0.90;;;;;;;;;;5042678;28;20029;-52
2022/05/22 07:18:47;;;;;;;8.05;1.27;;;;;;;;;;5027648;28;20087;-51
2022/05/22 07:21:13;;;;;;;6.45;1.35;;;;;;;;;;5029106;28;20038;-51
2022/05/22 07:23:39;;;;;;;7.80;1.73;;;;;;;;;;5038588;28;20107;-54
2022/05/22 07:26:05;;;;;;;3.67;0.70;;;;;;;;;;5041581;28;20025;-52
2022/05/22 07:28:31;;;;;;;5.88;1.05;;;;;;;;;;5049939;28;20016;-51
2022/05/22 07:30:57;;;;;;;4.05;1.02;;;;;;;;;;5044169;28;20907;-52
2022/05/22 07:33:23;;;;;;;5.20;0.90;;;;;;;;;;5027628;28;20082;-51
2022/05/22 07:36:07;;;;;;;6.93;1.95;;;;;;;;;;5046254;28;20033;-51
2022/05/22 07:38:33;;;;;;;3.60;1.35;;;;;;;;;;5042562;28;20811;-53
2022/05/22 07:40:59;;;;;;;4.30;0.98;;;;;;;;;;5045310;28;20024;-54
2022/05/22 07:43:25;;;;;;;4.68;1.05;;;;;;;;;;5051115;28;20048;-52
2022/05/22 07:45:51;;;;;;;2.78;0.80;;;;;;;;;;5038293;28;20021;-54
2022/05/22 07:48:17;;;;;;;3.92;0.95;;;;;;;;;;5057541;28;20064;-51
2022/05/22 07:50:44;;;;;;;8.55;0.70;;;;;;;;;;5039217;28;20589;-51
2022/05/22 07:53:10;;;;;;;7.63;1.20;;;;;;;;;;5050663;28;20468;-51
2022/05/22 07:55:36;;;;;;;3.22;0.68;;;;;;;;;;5027647;28;20029;-51
2022/05/22 07:58:02;;;;;;;6.65;1.30;;;;;;;;;;5041249;28;20040;-51
2022/05/22 08:00:28;;;;;;;5.25;0.70;;;;;;;;;;5026764;28;20688;-52
2022/05/22 08:02:54;;;;;;;5.53;1.40;;;;;;;;;;5046382;28;20124;-51
2022/05/22 08:05:20;;;;;;;2.75;0.88;;;;;;;;;;5046990;28;20419;-52
2022/05/22 08:07:47;;;;;;;8.32;1.15;;;;;;;;;;5050197;28;20040;-50
2022/05/22 08:10:14;;;;;;;4.82;0.82;;;;;;;;;;5041352;28;20032;-51
2022/05/22 08:12:41;;;;;;;2.97;0.90;;;;;;;;;;5036678;28;20064;-51
2022/05/22 08:15:07;;;;;;;4.20;1.00;;;;;;;;;;5041709;28;20037;-52
2022/05/22 08:17:36;;;;;;;5.20;0.80;;;;;;;;;;5030245;28;20473;-52
2022/05/22 08:20:07;;;;;;;4.50;1.08;;;;;;;;;;5039333;28;20029;-51
2022/05/22 08:22:33;;;;;;;5.78;0.93;;;;;;;;;;5023836;28;20032;-52
2022/05/22 08:25:00;;;;;;;3.40;0.68;;;;;;;;;;5044001;28;20112;-54
2022/05/22 08:27:27;;;;;;;2.47;0.68;;;;;;;;;;5019092;28;20060;-52
2022/05/22 08:29:53;;;;;;;3.97;0.60;;;;;;;;;;5018471;28;20043;-52
2022/05/22 08:32:19;;;;;;;4.32;0.98;;;;;;;;;;5041930;28;20100;-51
2022/05/22 08:34:45;;;;;;;5.03;1.00;;;;;;;;;;5038627;28;20400;-51
2022/05/22 08:37:11;;;;;;;3.88;0.90;;;;;;;;;;5037945;28;20112;-50
2022/05/22 08:39:37;;;;;;;1.80;0.70;;;;;;;;;;5035629;28;20036;-53
2022/05/22 08:42:07;;;;;;;3.33;0.70;;;;;;;;;;5048005;28;20025;-52
2022/05/22 08:44:33;;;;;;;2.67;0.85;;;;;;;;;;5047034;28;20842;-51
2022/05/22 08:47:03;;;;;;;3.90;1.02;;;;;;;;;;5048981;28;20029;-50
2022/05/22 08:49:39;;;;;;;2.70;0.90;;;;;;;;;;5033879;28;20029;-50
2022/05/22 08:52:13;;;;;;;4.05;0.80;;;;;;;;;;5053846;28;20033;-50
2022/05/22 08:54:41;;;;;;;4.50;0.90;;;;;;;;;;5040907;28;20030;-53
2022/05/22 09:00:18;;;;;;;3.67;0.57;;;;;;;;;;5039010;28;20080;-53
2022/05/22 09:02:46;;;;;;;6.78;0.93;;;;;;;;;;5042476;28;20040;-50
2022/05/22 09:05:22;;;;;;;6.30;0.88;;;;;;;;;;5042731;28;20043;-53
2022/05/22 09:08:02;;;;;;;6.03;1.27;;;;;;;;;;5035915;28;20037;-53
2022/05/22 09:10:44;;;;;;;2.53;0.57;;;;;;;;;;5032283;28;20469;-53
2022/05/22 09:13:10;;;;;;;4.80;0.80;;;;;;;;;;5038349;28;20725;-51
2022/05/22 09:15:36;;;;;;;2.38;0.60;;;;;;;;;;5034621;28;20034;-52
2022/05/22 09:18:13;;;;;;;5.68;0.75;;;;;;;;;;5043032;28;20032;-50
2022/05/22 09:20:51;;;;;;;4.03;0.98;;;;;;;;;;5037832;28;20091;-50
2022/05/22 09:23:25;;;;;;;2.80;0.63;;;;;;;;;;5033793;28;20070;-51
2022/05/22 09:26:01;;;;;;;2.67;0.70;;;;;;;;;;5045146;28;20028;-53
2022/05/22 09:28:27;;;;;;;3.25;0.80;;;;;;;;;;5034544;28;20029;-52
2022/05/22 09:31:08;;;;;;;3.10;0.80;;;;;;;;;;5044020;28;20033;-53
2022/05/22 09:33:53;;;;;;;2.40;0.63;;;;;;;;;;5035865;28;20029;-52
2022/05/22 09:36:19;;;;;;;5.95;1.02;;;;;;;;;;5042868;28;20485;-53
2022/05/22 09:38:52;;;;;;;3.47;0.68;;;;;;;;;;5035511;28;20032;-51
2022/05/22 09:41:40;;;;;;;6.25;1.08;;;;;;;;;;5041060;28;20524;-50
2022/05/22 09:44:08;;;;;;;4.97;1.23;;;;;;;;;;5035802;28;20476;-52
2022/05/22 09:46:42;;;;;;;2.35;0.65;;;;;;;;;;5044096;28;20488;-53
2022/05/22 09:49:20;;;;;;;5.93;0.80;;;;;;;;;;5026584;28;20030;-52
2022/05/22 09:51:52;;;;;;;4.65;0.55;;;;;;;;;;5036031;28;20042;-52
2022/05/22 09:54:30;;;;;;;4.25;0.70;;;;;;;;;;5039065;28;20040;-52
2022/05/22 09:57:05;;;;;;;2.45;0.65;;;;;;;;;;5048537;28;20536;-54
2022/05/22 09:59:31;;;;;;;5.60;0.85;;;;;;;;;;5040656;28;20083;-53
2022/05/22 10:02:00;;;;;;;4.35;0.55;;;;;;;;;;5035392;28;20418;-52
2022/05/22 10:04:49;;;;;;;2.17;0.82;;;;;;;;;;5046042;28;20017;-53
2022/05/22 10:07:21;;;;;;;3.00;0.98;;;;;;;;;;5032267;28;20532;-51
2022/05/22 10:09:59;;;;;;;2.50;0.40;;;;;;;;;;5046360;28;20025;-52
2022/05/22 10:12:45;;;;;;;4.80;0.80;;;;;;;;;;5048942;28;20029;-53
2022/05/22 10:15:11;;;;;;;3.97;0.65;;;;;;;;;;5034131;28;20033;-53
2022/05/22 10:17:44;;;;;;;2.58;0.70;;;;;;;;;;5040142;28;20510;-52
2022/05/22 10:20:18;;;;;;;2.95;0.70;;;;;;;;;;5032111;28;20041;-53
2022/05/22 10:22:44;;;;;;;3.28;0.60;;;;;;;;;;5037458;28;20392;-53
2022/05/22 10:25:25;;;;;;;2.50;0.80;;;;;;;;;;5015816;28;20120;-51
2022/05/22 10:27:55;;;;;;;1.33;0.68;;;;;;;;;;5048088;28;20396;-53
2022/05/22 10:30:25;;;;;;;3.58;0.70;;;;;;;;;;5051422;28;20039;-54
2022/05/22 10:32:54;;;;;;;4.00;0.60;;;;;;;;;;5045396;28;20392;-52
2022/05/22 10:35:25;;;;;;;2.85;0.82;;;;;;;;;;5013034;28;20042;-52
2022/05/22 10:37:54;;;;;;;2.20;0.93;;;;;;;;;;5037514;28;20670;-51
2022/05/22 10:40:22;;;;;;;3.70;0.57;;;;;;;;;;5034051;28;20029;-52
2022/05/22 10:42:53;;;;;;;3.67;0.65;;;;;;;;;;5041578;28;20028;-50
2022/05/22 10:45:21;;;;;;;4.78;0.75;;;;;;;;;;5031901;28;20535;-51
2022/05/22 10:47:48;;;;;;;4.35;0.70;;;;;;;;;;5036263;28;20095;-53
2022/05/22 10:50:20;;;;;;;3.72;0.57;;;;;;;;;;5039683;28;20480;-51
2022/05/22 10:52:46;;;;;;;2.83;0.73;;;;;;;;;;5040699;28;20029;-54
2022/05/22 10:55:31;;;;;;;1.08;0.38;;;;;;;;;;5033853;28;20028;-54
2022/05/22 10:57:58;;;;;;;2.00;0.28;;;;;;;;;;5042339;28;20500;-53
2022/05/22 11:00:25;;;;;;;3.65;0.50;;;;;;;;;;5040421;28;20176;-55
2022/05/22 11:02:51;;;;;;;3.58;0.63;;;;;;;;;;5041424;28;20036;-53
2022/05/22 11:05:22;;;;;;;2.58;0.40;;;;;;;;;;5043560;28;20025;-54
2022/05/22 11:07:51;;;;;;;2.03;0.55;;;;;;;;;;5037536;28;20094;-50
2022/05/22 11:10:38;;;;;;;1.65;0.45;;;;;;;;;;5036633;28;20080;-54
2022/05/22 11:13:06;;;;;;;2.28;0.38;;;;;;;;;;5037770;28;20079;-55
2022/05/22 11:15:34;;;;;;;0.77;0.30;;;;;;;;;;5038572;28;20484;-53
2022/05/22 11:18:11;;;;;;;1.75;0.52;;;;;;;;;;5048727;28;20040;-50
2022/05/22 11:20:40;;;;;;;2.53;0.47;;;;;;;;;;5040613;28;20103;-50
2022/05/22 11:23:28;;;;;;;3.65;0.50;;;;;;;;;;5030703;28;20089;-51
2022/05/22 11:26:14;;;;;;;2.35;0.43;;;;;;;;;;5031958;28;20079;-53
2022/05/22 11:28:59;;;;;;;2.10;0.80;;;;;;;;;;5039020;28;20032;-53
2022/05/22 11:31:44;;;;;;;1.67;0.40;;;;;;;;;;5039396;28;20511;-53
2022/05/22 11:34:29;;;;;;;1.02;0.52;;;;;;;;;;5029701;28;20128;-52
2022/05/22 11:37:05;;;;;;;2.20;0.45;;;;;;;;;;5033999;28;20033;-53
2022/05/22 11:39:50;;;;;;;0.88;0.47;;;;;;;;;;5039257;28;20039;-52
2022/05/22 11:42:25;;;;;;;7.82;0.73;;;;;;;;;;5029770;28;20025;-53
2022/05/22 11:45:09;;;;;;;2.45;0.65;;;;;;;;;;5038677;28;20060;-53
2022/05/22 11:47:44;;;;;;;2.90;0.70;;;;;;;;;;5041553;28;20029;-54
2022/05/22 11:50:24;;;;;;;3.45;0.95;;;;;;;;;;5049476;28;20025;-51
2022/05/22 11:53:03;;;;;;;2.08;0.70;;;;;;;;;;5040361;28;20040;-54
2022/05/22 11:55:47;;;;;;;1.73;0.47;;;;;;;;;;5044377;28;20029;-51
2022/05/22 11:58:32;;;;;;;2.50;0.60;;;;;;;;;;5036573;28;20029;-50
2022/05/22 12:01:09;;;;;;;1.15;0.45;;;;;;;;;;5044010;28;20663;-49
2022/05/22 12:03:35;;;;;;;2.85;0.50;;;;;;;;;;5044209;28;20464;-51
2022/05/22 12:06:07;;;;;;;2.22;0.70;;;;;;;;;;5045854;28;20039;-53
2022/05/22 12:08:42;;;;;;;3.88;0.63;;;;;;;;;;5037608;28;20108;-53
2022/05/22 12:11:13;;;;;;;2.03;0.40;;;;;;;;;;5036290;28;20041;-52
2022/05/22 12:13:39;;;;;;;1.60;0.50;;;;;;;;;;5041909;28;20040;-53
2022/05/22 12:16:11;;;;;;;3.17;0.60;;;;;;;;;;5043457;28;20471;-51
2022/05/22 12:18:40;;;;;;;2.80;0.40;;;;;;;;;;5043803;28;20622;-54
2022/05/22 12:21:09;;;;;;;2.20;0.52;;;;;;;;;;5037093;28;20404;-54
2022/05/22 12:23:45;;;;;;;1.08;0.32;;;;;;;;;;5047248;28;20025;-54
2022/05/22 12:26:13;;;;;;;3.53;0.52;;;;;;;;;;5036483;28;20456;-54
2022/05/22 12:28:58;;;;;;;1.40;0.45;;;;;;;;;;5047745;28;20480;-54
2022/05/22 12:31:27;;;;;;;4.32;0.68;;;;;;;;;;5028058;28;20038;-53
2022/05/22 12:33:55;;;;;;;4.10;0.30;;;;;;;;;;5045900;28;20170;-54
2022/05/22 12:36:24;;;;;;;4.10;0.50;;;;;;;;;;5042744;28;20166;-54
2022/05/22 12:38:56;;;;;;;2.40;0.40;;;;;;;;;;5038799;28;20084;-55
2022/05/22 12:41:35;;;;;;;2.65;0.40;;;;;;;;;;5035727;28;20112;-53
2022/05/22 12:44:02;;;;;;;2.17;0.30;;;;;;;;;;5036488;28;20144;-54
2022/05/22 12:46:28;;;;;;;2.42;0.50;;;;;;;;;;5047032;28;20128;-53
2022/05/22 12:49:06;;;;;;;1.83;0.47;;;;;;;;;;5040277;28;20087;-53
2022/05/22 12:51:33;;;;;;;1.65;0.25;;;;;;;;;;5039440;28;20033;-54
2022/05/22 12:54:09;;;;;;;0.63;0.30;;;;;;;;;;5043148;28;20036;-54
2022/05/22 12:56:35;;;;;;;1.05;0.30;;;;;;;;;;5028822;28;20481;-52
2022/05/22 12:59:02;;;;;;;1.30;0.50;;;;;;;;;;5032598;28;20044;-54
2022/05/22 13:01:28;;;;;;;2.80;0.90;;;;;;;;;;5035629;28;20037;-54
2022/05/22 13:03:59;;;;;;;3.97;0.55;;;;;;;;;;5035089;28;20068;-54
2022/05/22 13:06:31;;;;;;;7.18;0.50;;;;;;;;;;5042080;28;20094;-52
2022/05/22 13:08:59;;;;;;;2.78;0.57;;;;;;;;;;5032552;28;21502;-52
2022/05/22 13:11:30;;;;;;;3.05;0.40;;;;;;;;;;5033417;28;20041;-53
2022/05/22 13:13:57;;;;;;;0.75;0.22;;;;;;;;;;5043267;28;20496;-54
2022/05/22 13:16:28;;;;;;;0.82;0.25;;;;;;;;;;5034247;28;20037;-54
2022/05/22 13:18:55;;;;;;;3.40;0.50;;;;;;;;;;5029210;28;20029;-54
2022/05/22 13:21:39;;;;;;;1.55;0.32;;;;;;;;;;5030653;28;20420;-55
2022/05/22 13:24:18;;;;;;;0.68;0.30;;;;;;;;;;5041031;28;20349;-54
2022/05/22 13:26:59;;;;;;;0.75;0.20;;;;;;;;;;5043092;28;20025;-53
2022/05/22 13:29:27;;;;;;;0.88;0.40;;;;;;;;;;5041819;28;20373;-52
2022/05/22 13:31:55;;;;;;;2.58;0.35;;;;;;;;;;5038879;28;20076;-54
2022/05/22 13:34:35;;;;;;;1.02;0.10;;;;;;;;;;5046799;28;20025;-54
2022/05/22 13:37:03;;;;;;;1.75;0.40;;;;;;;;;;5034081;28;20084;-54
2022/05/22 13:39:47;;;;;;;1.20;0.30;;;;;;;;;;5050014;28;20033;-54
2022/05/22 13:42:36;;;;;;;1.17;0.32;;;;;;;;;;5030483;28;20025;-55
2022/05/22 13:45:20;;;;;;;1.45;0.30;;;;;;;;;;5040960;28;20029;-55
2022/05/22 13:47:46;;;;;;;2.35;0.38;;;;;;;;;;5037927;28;20029;-52
2022/05/22 13:53:11;;;;;;;1.95;0.45;;;;;;;;;;5020885;28;20091;-52
2022/05/22 13:55:39;;;;;;;3.63;0.50;;;;;;;;;;5033269;28;20380;-54
2022/05/22 13:58:11;;;;;;;1.23;0.32;;;;;;;;;;5043151;28;20017;-55
2022/05/22 14:00:42;;;;;;;0.75;0.20;;;;;;;;;;5037037;28;20114;-55
2022/05/22 14:03:16;;;;;;;1.13;0.30;;;;;;;;;;5041993;28;20017;-55
2022/05/22 14:05:44;;;;;;;0.70;0.13;;;;;;;;;;5043295;28;20115;-54
2022/05/22 14:08:12;;;;;;;0.77;0.20;;;;;;;;;;5037967;28;20457;-54
2022/05/22 14:10:39;;;;;;;3.30;0.40;;;;;;;;;;5042869;28;20028;-56
2022/05/22 14:13:13;;;;;;;2.22;0.30;;;;;;;;;;5039076;28;20033;-56
2022/05/22 14:15:39;;;;;;;4.15;0.45;;;;;;;;;;5040729;28;20029;-55
2022/05/22 14:18:15;;;;;;;2.03;0.28;;;;;;;;;;5042379;28;20025;-54
2022/05/22 14:20:43;;;;;;;1.70;0.32;;;;;;;;;;5038867;28;20147;-55
2022/05/22 14:23:16;;;;;;;1.77;0.60;;;;;;;;;;5049596;28;20435;-55
2022/05/22 14:25:42;;;;;;;2.03;0.55;;;;;;;;;;5035672;28;20048;-53
2022/05/22 14:28:08;;;;;;;0.63;0.20;;;;;;;;;;5050586;28;20590;-55
2022/05/22 14:30:37;;;;;;;1.17;0.30;;;;;;;;;;5031542;28;20117;-56
2022/05/22 14:33:09;;;;;;;1.27;0.20;;;;;;;;;;5029963;28;20033;-55
2022/05/22 14:35:35;;;;;;;0.33;0.20;;;;;;;;;;5046841;28;20025;-55
2022/05/22 14:38:09;;;;;;;3.72;0.30;;;;;;;;;;5036299;28;20021;-55
2022/05/22 14:40:39;;;;;;;2.42;0.20;;;;;;;;;;5049759;28;20083;-55
2022/05/22 14:43:05;;;;;;;1.13;0.25;;;;;;;;;;5042139;28;20631;-55
2022/05/22 14:45:36;;;;;;;1.05;0.10;;;;;;;;;;5051676;28;20020;-52
2022/05/22 14:48:07;;;;;;;1.60;0.20;;;;;;;;;;5023677;28;20026;-53
2022/05/22 14:50:33;;;;;;;3.03;0.45;;;;;;;;;;5046365;28;20071;-54
2022/05/22 14:53:04;;;;;;;0.77;0.30;;;;;;;;;;5044828;28;20043;-52
2022/05/22 14:55:38;;;;;;;1.15;0.22;;;;;;;;;;5050350;28;20021;-53
2022/05/22 14:58:12;;;;;;;0.80;0.32;;;;;;;;;;5047784;28;20167;-54
2022/05/22 15:00:43;;;;;;;2.00;0.35;;;;;;;;;;5025832;28;20036;-54
2022/05/22 15:03:14;;;;;;;0.50;0.30;;;;;;;;;;5037648;28;20037;-53
2022/05/22 15:05:42;;;;;;;0.93;0.20;;;;;;;;;;5046700;28;20037;-54
2022/05/22 15:08:28;;;;;;;0.77;0.20;;;;;;;;;;5055346;28;20090;-54
2022/05/22 15:10:55;;;;;;;1.25;0.30;;;;;;;;;;5050281;28;20024;-54
2022/05/22 15:13:28;;;;;;;2.13;0.40;;;;;;;;;;5051817;28;20136;-55
2022/05/22 15:16:05;;;;;;;2.35;0.50;;;;;;;;;;5054750;28;20170;-54
2022/05/22 15:21:16;;;;;;;1.77;0.30;;;;;;;;;;5058879;28;20048;-54